Time;durP1;ratioP1;P1;durP2;ratioP2;P2;SDS_P1;SDS_P2;PMS_P1;PMS_P2;Temp;Humidity;BMP_temperature;BMP_pressure;BME280_temperature;BME280_humidity;BME280_pressure;Samples;Min_cycle;Max_cycle;Signal;HPM_P1;HPM_P2
2022/05/21 00:01:03;;;;;;;17.37;8.30;;;18.90;99.90;;;;;;20657012;28;20038;-84
2022/05/21 00:11:04;;;;;;;16.00;8.53;;;18.60;99.90;;;;;;20640154;28;20038;-84
2022/05/21 00:21:05;;;;;;;17.70;8.93;;;18.50;99.90;;;;;;20639392;28;20038;-85
2022/05/21 00:31:07;;;;;;;20.17;9.17;;;18.60;99.90;;;;;;20673271;28;20785;-84
2022/05/21 00:41:11;;;;;;;20.52;9.30;;;18.80;99.90;;;;;;20654587;28;20034;-84
2022/05/21 00:51:20;;;;;;;18.05;10.10;;;18.60;99.90;;;;;;20670215;28;20026;-83
2022/05/21 01:01:21;;;;;;;19.10;11.10;;;18.50;99.90;;;;;;20636976;28;20569;-83
2022/05/21 01:11:22;;;;;;;24.40;12.77;;;18.40;99.90;;;;;;20652426;28;20038;-83
2022/05/21 01:21:23;;;;;;;28.30;14.60;;;18.40;99.90;;;;;;20670516;28;20277;-83
2022/05/21 01:31:24;;;;;;;23.73;14.43;;;18.30;99.90;;;;;;20572686;28;20039;-86
2022/05/21 01:41:25;;;;;;;26.43;13.03;;;18.30;99.90;;;;;;20485398;29;20866;-83
2022/05/21 01:51:26;;;;;;;23.57;12.20;;;18.30;99.90;;;;;;20466362;29;20032;-84
2022/05/21 02:01:27;;;;;;;18.80;10.60;;;18.20;99.90;;;;;;20497713;28;20035;-82
2022/05/21 02:11:28;;;;;;;18.23;11.32;;;18.10;99.90;;;;;;20492856;29;20370;-83
2022/05/21 02:21:30;;;;;;;24.73;11.60;;;18.00;99.90;;;;;;20510968;28;20424;-84
2022/05/21 02:31:31;;;;;;;18.02;11.68;;;17.90;99.90;;;;;;20489375;29;20031;-83
2022/05/21 02:41:32;;;;;;;20.87;12.07;;;17.80;99.90;;;;;;20491838;29;20035;-84
2022/05/21 02:51:33;;;;;;;18.00;11.30;;;17.70;99.90;;;;;;20508747;28;20123;-82
2022/05/21 03:01:34;;;;;;;17.77;10.43;;;17.60;99.90;;;;;;20491963;29;20082;-82
2022/05/21 03:11:35;;;;;;;17.75;11.40;;;17.70;99.90;;;;;;20488980;28;20070;-82
2022/05/21 03:21:36;;;;;;;12.53;8.73;;;17.50;99.90;;;;;;20493837;29;20035;-85
2022/05/21 03:31:37;;;;;;;17.73;8.73;;;17.40;99.90;;;;;;20492923;29;20042;-84
2022/05/21 03:41:38;;;;;;;12.27;7.37;;;17.20;99.90;;;;;;20488321;29;20032;-84
2022/05/21 03:51:39;;;;;;;11.07;7.40;;;17.20;99.90;;;;;;20487371;29;20039;-82
2022/05/21 04:01:41;;;;;;;12.80;9.03;;;17.00;99.90;;;;;;20491555;28;20043;-86
2022/05/21 04:11:42;;;;;;;12.20;8.07;;;16.90;99.90;;;;;;20490308;29;20539;-83
2022/05/21 04:21:42;;;;;;;11.30;6.83;;;16.80;99.90;;;;;;20510417;28;20437;-82
2022/05/21 04:31:44;;;;;;;14.40;6.50;;;16.90;99.90;;;;;;20499463;29;20051;-84
2022/05/21 04:41:44;;;;;;;9.50;5.97;;;16.90;99.90;;;;;;20500627;29;20043;-82
2022/05/21 04:51:45;;;;;;;11.10;6.70;;;16.90;99.90;;;;;;20502169;29;20392;-82
2022/05/21 05:01:46;;;;;;;9.13;4.97;;;16.90;99.90;;;;;;20503162;28;20127;-82
2022/05/21 05:11:47;;;;;;;9.20;5.43;;;16.90;99.90;;;;;;20497120;29;20512;-83
2022/05/21 05:21:48;;;;;;;7.97;4.67;;;16.90;99.90;;;;;;20515752;28;20495;-82
2022/05/21 05:31:49;;;;;;;5.90;3.90;;;17.00;99.90;;;;;;20506092;28;20073;-84
2022/05/21 05:41:51;;;;;;;12.03;4.80;;;16.80;99.90;;;;;;20646635;28;20475;-82
2022/05/21 05:51:52;;;;;;;11.23;4.55;;;17.00;99.90;;;;;;20620851;28;20111;-84
2022/05/21 06:02:57;;;;;;;7.90;5.37;;;17.10;99.90;;;;;;20657956;28;20085;-83
2022/05/21 06:12:15;;;;;;;6.32;4.28;;;17.20;99.90;;;;;;20676552;28;20041;-83
2022/05/21 06:22:16;;;;;;;14.73;5.25;;;17.30;99.90;;;;;;20658167;28;20058;-82
2022/05/21 06:32:17;;;;;;;;;;;17.40;99.90;;;;;;20638901;28;20035;-81
2022/05/21 06:42:18;;;;;;;6.87;3.17;;;17.60;99.90;;;;;;20672935;28;20406;-81
2022/05/21 06:52:19;;;;;;;6.93;3.70;;;18.40;99.90;;;;;;20671572;28;20289;-81
2022/05/21 07:02:20;;;;;;;4.97;2.33;;;18.60;99.90;;;;;;20675073;28;20038;-81
2022/05/21 07:12:21;;;;;;;4.67;1.90;;;19.00;99.90;;;;;;20619437;28;20030;-82
2022/05/21 07:22:22;;;;;;;4.10;2.30;;;19.20;99.90;;;;;;20579332;28;20476;-82
2022/05/21 07:32:27;;;;;;;4.43;1.75;;;19.60;99.90;;;;;;20598045;28;20154;-83
2022/05/21 07:42:27;;;;;;;3.25;1.73;;;19.20;99.90;;;;;;20581412;28;20070;-81
2022/05/21 07:52:29;;;;;;;4.40;1.93;;;19.70;99.90;;;;;;20592869;28;20027;-83
2022/05/21 08:02:31;;;;;;;2.78;1.52;;;19.90;99.90;;;;;;20620401;23;20050;-72
2022/05/21 08:12:32;;;;;;;4.83;1.70;;;19.30;99.90;;;;;;20597872;28;20031;-73
2022/05/21 08:33:04;;;;;;;2.63;1.52;;;20.70;99.90;;;;;;20594057;28;20027;-73
2022/05/21 08:43:08;;;;;;;2.67;1.40;;;20.40;99.90;;;;;;20593348;28;20043;-74
2022/05/21 08:53:15;;;;;;;3.38;1.30;;;20.90;99.90;;;;;;20575546;28;20065;-73
2022/05/21 09:03:20;;;;;;;2.83;1.15;;;21.10;99.90;;;;;;20593233;28;20054;-73
2022/05/21 09:13:52;;;;;;;2.92;1.02;;;21.10;99.90;;;;;;20578955;28;20033;-73
2022/05/21 09:23:53;;;;;;;1.48;1.15;;;21.80;99.90;;;;;;20590623;28;20033;-73
2022/05/21 09:33:55;;;;;;;2.03;1.27;;;20.80;99.90;;;;;;20589653;28;20055;-73
2022/05/21 09:54:19;;;;;;;;;;;21.30;99.90;;;;;;20588544;28;20030;-73
2022/05/21 10:04:33;;;;;;;3.15;1.20;;;21.70;99.90;;;;;;20587279;28;19917;-73
2022/05/21 10:14:38;;;;;;;14.50;4.85;;;22.20;99.90;;;;;;20589270;28;20031;-73
2022/05/21 10:25:10;;;;;;;7.05;2.47;;;22.60;99.90;;;;;;20596929;28;20397;-74
2022/05/21 10:35:29;;;;;;;4.20;1.55;;;22.60;99.90;;;;;;20597910;28;20508;-74
2022/05/21 10:46:00;;;;;;;3.25;1.20;;;23.30;99.90;;;;;;20629438;28;20455;-74
2022/05/21 10:56:04;;;;;;;1.43;0.73;;;23.40;99.90;;;;;;20548148;28;20043;-75
2022/05/21 11:06:44;;;;;;;1.30;1.20;;;23.40;99.90;;;;;;20563350;28;20038;-74
2022/05/21 11:16:51;;;;;;;1.60;0.55;;;23.80;99.90;;;;;;20529477;28;20078;-74
2022/05/21 11:27:06;;;;;;;2.30;1.20;;;23.60;99.90;;;;;;20604143;28;20046;-74
2022/05/21 11:37:22;;;;;;;4.53;0.73;;;23.90;99.90;;;;;;20556984;28;20045;-74
2022/05/21 11:48:06;;;;;;;3.83;0.65;;;24.00;99.90;;;;;;20578965;28;20055;-74
2022/05/21 11:58:14;;;;;;;3.38;0.73;;;25.60;99.90;;;;;;20578510;28;20034;-74
2022/05/21 12:08:27;;;;;;;5.80;0.80;;;25.60;99.90;;;;;;20589962;28;20097;-74
2022/05/21 12:18:50;;;;;;;4.22;0.80;;;25.60;99.90;;;;;;20577741;28;20034;-75
2022/05/21 12:29:04;;;;;;;2.63;1.02;;;26.60;99.90;;;;;;20594743;28;20122;-74
2022/05/21 12:39:15;;;;;;;3.33;1.63;;;25.90;99.90;;;;;;20594043;28;20513;-73
2022/05/21 12:49:17;;;;;;;2.33;0.93;;;25.90;99.90;;;;;;20592475;28;20038;-73
2022/05/21 12:59:23;;;;;;;1.50;1.17;;;25.90;99.90;;;;;;20592182;28;20409;-74
2022/05/21 13:09:25;;;;;;;4.53;1.25;;;25.70;99.90;;;;;;20620223;28;20113;-74
2022/05/21 13:20:10;;;;;;;4.72;1.40;;;26.50;99.90;;;;;;20672938;28;20050;-74
2022/05/21 13:30:35;;;;;;;3.20;1.50;;;25.70;99.90;;;;;;20667164;28;20034;-73
2022/05/21 13:40:53;;;;;;;2.63;1.67;;;25.70;99.90;;;;;;20599966;28;20034;-73
2022/05/21 13:50:54;;;;;;;3.95;1.67;;;25.70;99.90;;;;;;20588675;28;20035;-74
2022/05/21 14:00:56;;;;;;;4.32;1.58;;;25.10;99.90;;;;;;20643709;23;20045;-77
2022/05/21 14:10:58;;;;;;;5.18;1.70;;;25.60;99.90;;;;;;20914917;28;20044;-76
2022/05/21 14:21:21;;;;;;;6.65;1.63;;;25.60;99.90;;;;;;20918389;28;20086;-76
2022/05/21 14:31:36;;;;;;;4.00;1.90;;;24.90;99.90;;;;;;20921604;28;20040;-77
2022/05/21 14:41:40;;;;;;;9.52;3.00;;;25.70;99.90;;;;;;20927612;28;20044;-75
2022/05/21 15:02:09;;;;;;;4.40;1.73;;;26.20;99.90;;;;;;20918687;28;20033;-74
2022/05/21 15:12:10;;;;;;;6.25;1.95;;;25.30;99.90;;;;;;20909268;28;20094;-75
2022/05/21 15:22:15;;;;;;;6.50;2.42;;;24.70;99.90;;;;;;20908880;28;20365;-75
2022/05/21 15:32:16;;;;;;;13.15;5.95;;;24.60;99.90;;;;;;20907476;28;20025;-75
2022/05/21 15:42:21;;;;;;;;;;;24.80;99.90;;;;;;20908497;28;20041;-74
2022/05/21 15:52:28;;;;;;;5.90;1.73;;;24.50;99.90;;;;;;20907868;28;19912;-75
2022/05/21 16:02:31;;;;;;;6.32;1.40;;;24.30;99.90;;;;;;20907364;28;20530;-74
2022/05/21 16:12:35;;;;;;;3.78;1.48;;;24.40;99.90;;;;;;20906883;28;20079;-75
2022/05/21 16:22:41;;;;;;;2.70;1.23;;;24.00;99.90;;;;;;20919651;28;20047;-75
2022/05/21 16:32:42;;;;;;;7.68;2.05;;;23.90;99.90;;;;;;20922957;28;20452;-74
2022/05/21 16:42:46;;;;;;;10.07;2.53;;;23.70;99.90;;;;;;20906876;28;20032;-74
2022/05/21 16:52:48;;;;;;;7.88;2.90;;;23.60;99.90;;;;;;20809345;28;20029;-74
2022/05/21 17:02:49;;;;;;;8.70;2.78;;;23.50;99.90;;;;;;20835520;28;20388;-76
2022/05/21 17:12:51;;;;;;;2.60;1.57;;;23.30;99.90;;;;;;20825809;28;20038;-76
2022/05/21 17:22:52;;;;;;;3.10;1.65;;;23.30;99.90;;;;;;20821505;28;20399;-74
2022/05/21 17:33:15;;;;;;;3.27;1.67;;;23.20;99.90;;;;;;20815625;28;20036;-76
2022/05/21 17:43:16;;;;;;;2.88;1.60;;;22.90;99.90;;;;;;20861403;28;20060;-76
2022/05/21 17:53:20;;;;;;;3.30;1.73;;;22.70;99.90;;;;;;20814555;28;20045;-74
2022/05/21 18:03:22;;;;;;;2.70;1.75;;;22.60;99.90;;;;;;20815028;28;20116;-76
2022/05/21 18:13:24;;;;;;;3.10;1.60;;;22.50;99.90;;;;;;20820256;28;20586;-75
2022/05/21 18:23:26;;;;;;;3.88;1.80;;;22.30;99.90;;;;;;20811765;28;20044;-76
2022/05/21 18:33:27;;;;;;;5.78;1.83;;;21.50;99.90;;;;;;20812094;28;20120;-76
2022/05/21 18:43:28;;;;;;;3.37;1.80;;;21.10;99.90;;;;;;20821051;28;20148;-74
2022/05/21 18:53:30;;;;;;;3.13;1.70;;;21.00;99.90;;;;;;20809302;28;20037;-76
2022/05/21 19:03:31;;;;;;;4.65;2.00;;;20.50;99.90;;;;;;20809567;28;20542;-76
2022/05/21 19:13:34;;;;;;;6.80;2.30;;;19.50;99.90;;;;;;20808804;28;20033;-76
2022/05/21 19:23:35;;;;;;;4.40;2.30;;;19.20;99.90;;;;;;20807920;28;20042;-74
2022/05/21 19:33:36;;;;;;;4.70;2.20;;;19.20;99.90;;;;;;20808031;28;20083;-75
2022/05/21 19:43:36;;;;;;;4.83;1.93;;;18.90;99.90;;;;;;20848495;28;20032;-75
2022/05/21 19:53:37;;;;;;;6.00;1.90;;;18.90;99.90;;;;;;20809887;28;20042;-76
2022/05/21 20:03:39;;;;;;;5.63;2.08;;;18.70;99.90;;;;;;20824774;28;20041;-74
2022/05/21 20:14:23;;;;;;;5.63;1.80;;;18.30;99.90;;;;;;20825030;28;20032;-75
2022/05/21 20:24:28;;;;;;;4.45;1.70;;;18.50;99.90;;;;;;20805308;28;20041;-75
2022/05/21 20:34:30;;;;;;;5.18;2.42;;;18.60;99.90;;;;;;20825501;28;20087;-75
2022/05/21 20:44:31;;;;;;;6.45;2.35;;;17.80;99.90;;;;;;20819488;28;20056;-75
2022/05/21 20:54:36;;;;;;;4.63;1.63;;;17.60;99.90;;;;;;20823807;28;20033;-74
2022/05/21 21:04:37;;;;;;;5.57;2.00;;;17.70;99.90;;;;;;20828278;28;20095;-75
2022/05/21 21:14:43;;;;;;;5.70;1.50;;;17.40;99.90;;;;;;20834319;28;20030;-75
2022/05/21 21:24:44;;;;;;;3.33;2.00;;;16.40;99.90;;;;;;20823744;28;20492;-76
2022/05/21 21:34:45;;;;;;;3.00;1.30;;;16.30;99.90;;;;;;20829835;28;20032;-74
2022/05/21 21:44:46;;;;;;;4.77;1.60;;;16.60;99.90;;;;;;20832641;28;20048;-76
2022/05/21 21:54:46;;;;;;;4.37;1.40;;;16.10;99.90;;;;;;20834765;28;20060;-76
2022/05/21 22:04:49;;;;;;;4.18;1.80;;;16.30;99.90;;;;;;20835241;28;20039;-76
2022/05/21 22:14:53;;;;;;;2.67;1.58;;;16.80;99.90;;;;;;20833895;28;20037;-77
2022/05/21 22:24:53;;;;;;;2.13;1.40;;;16.60;99.90;;;;;;20836849;28;20033;-76
2022/05/21 22:34:54;;;;;;;6.97;1.37;;;16.40;99.90;;;;;;20831792;28;20044;-77
2022/05/21 22:44:55;;;;;;;1.97;1.53;;;16.30;99.90;;;;;;20831929;28;20079;-77
2022/05/21 22:54:56;;;;;;;3.67;1.30;;;15.90;99.90;;;;;;20857278;28;20033;-79
2022/05/21 23:04:57;;;;;;;4.15;1.60;;;15.00;99.90;;;;;;20860343;28;20035;-78
2022/05/21 23:25:18;;;;;;;3.42;1.58;;;13.80;99.90;;;;;;20851346;28;20120;-79
2022/05/21 23:35:19;;;;;;;4.20;1.38;;;14.20;99.90;;;;;;20852595;28;20030;-79
2022/05/21 23:45:21;;;;;;;4.50;1.30;;;13.70;99.90;;;;;;20860859;28;20033;-79
2022/05/21 23:55:21;;;;;;;1.80;1.40;;;13.80;99.90;;;;;;20861036;28;20025;-78
